sensor_id;sensor_type;location;lat;lon;timestamp;pressure;altitude;pressure_sealevel;temperature;humidity
44138;BME280;29800;55.942;37.314;2023-04-10T09:43:25;100339.28;;;18.25;32.21
44138;BME280;29800;55.942;37.314;2023-04-10T09:45:55;100355.16;;;18.14;31.38
44138;BME280;29800;55.942;37.314;2023-04-10T09:48:23;100351.91;;;18.02;31.47
44138;BME280;29800;55.942;37.314;2023-04-10T09:50:50;100348.34;;;17.96;32.54
44138;BME280;29800;55.942;37.314;2023-04-10T09:53:18;100349.44;;;17.95;32.90
44138;BME280;29800;55.942;37.314;2023-04-10T09:55:47;100345.31;;;17.92;33.15
44138;BME280;29800;55.942;37.314;2023-04-10T09:58:14;100359.44;;;17.86;33.73
44138;BME280;29800;55.942;37.314;2023-04-10T10:00:46;100351.69;;;17.82;33.62
44138;BME280;29800;55.942;37.314;2023-04-10T10:03:17;100354.19;;;17.79;34.17
44138;BME280;29800;55.942;37.314;2023-04-10T10:05:46;100354.44;;;17.93;33.38
44138;BME280;29800;55.942;37.314;2023-04-10T10:08:14;100353.88;;;17.96;33.04
44138;BME280;29800;55.942;37.314;2023-04-10T10:10:46;100359.91;;;18.03;33.56
44138;BME280;29800;55.942;37.314;2023-04-10T10:16:08;100363.38;;;18.29;32.92
44138;BME280;29800;55.942;37.314;2023-04-10T10:18:44;100378.06;;;18.25;32.51
44138;BME280;29800;55.942;37.314;2023-04-10T10:21:13;100390.31;;;18.18;33.56
44138;BME280;29800;55.942;37.314;2023-04-10T10:23:41;100388.09;;;18.21;33.80
44138;BME280;29800;55.942;37.314;2023-04-10T10:26:09;100387.56;;;18.13;34.38
44138;BME280;29800;55.942;37.314;2023-04-10T10:28:36;100392.09;;;17.89;34.70
44138;BME280;29800;55.942;37.314;2023-04-10T10:31:05;100401.31;;;17.63;35.17
44138;BME280;29800;55.942;37.314;2023-04-10T10:33:35;100404.69;;;17.40;36.16
44138;BME280;29800;55.942;37.314;2023-04-10T10:36:03;100400.84;;;17.10;36.95
44138;BME280;29800;55.942;37.314;2023-04-10T10:38:30;100402.19;;;16.71;37.59
44138;BME280;29800;55.942;37.314;2023-04-10T10:41:31;100409.34;;;16.47;38.35
44138;BME280;29800;55.942;37.314;2023-04-10T10:44:10;100406.44;;;15.95;39.74
44138;BME280;29800;55.942;37.314;2023-04-10T10:46:43;100401.75;;;15.48;40.52
44138;BME280;29800;55.942;37.314;2023-04-10T10:49:12;100402.63;;;15.16;41.76
44138;BME280;29800;55.942;37.314;2023-04-10T10:51:48;100397.53;;;14.98;42.94
44138;BME280;29800;55.942;37.314;2023-04-10T10:54:29;100405.69;;;14.82;43.34
44138;BME280;29800;55.942;37.314;2023-04-10T10:56:56;100401.56;;;14.58;43.59
44138;BME280;29800;55.942;37.314;2023-04-10T11:00:01;100400.91;;;14.73;42.83
44138;BME280;29800;55.942;37.314;2023-04-10T11:02:28;100411.44;;;14.53;43.63
44138;BME280;29800;55.942;37.314;2023-04-10T11:04:54;100407.88;;;14.31;44.17
44138;BME280;29800;55.942;37.314;2023-04-10T11:07:21;100410.53;;;14.21;44.66
44138;BME280;29800;55.942;37.314;2023-04-10T11:10:07;100413.53;;;14.19;44.75
44138;BME280;29800;55.942;37.314;2023-04-10T11:15:39;100408.13;;;14.02;44.66
44138;BME280;29800;55.942;37.314;2023-04-10T11:18:06;100416.16;;;13.87;45.17
44138;BME280;29800;55.942;37.314;2023-04-10T11:21:07;100411.53;;;13.87;44.83
44138;BME280;29800;55.942;37.314;2023-04-10T11:23:35;100397.69;;;13.60;45.89
44138;BME280;29800;55.942;37.314;2023-04-10T11:26:02;100399.63;;;13.42;46.38
44138;BME280;29800;55.942;37.314;2023-04-10T11:31:18;100402.63;;;13.24;47.35
44138;BME280;29800;55.942;37.314;2023-04-10T11:33:48;100408.91;;;13.02;48.60
44138;BME280;29800;55.942;37.314;2023-04-10T11:36:15;100411.97;;;12.89;49.55
44138;BME280;29800;55.942;37.314;2023-04-10T11:39:03;100413.03;;;12.88;48.88
44138;BME280;29800;55.942;37.314;2023-04-10T11:41:37;100406.81;;;12.76;49.37
44138;BME280;29800;55.942;37.314;2023-04-10T11:44:06;100407.31;;;12.73;49.49
44138;BME280;29800;55.942;37.314;2023-04-10T11:46:38;100402.97;;;12.77;49.29
44138;BME280;29800;55.942;37.314;2023-04-10T11:49:07;100409.69;;;12.69;49.34
44138;BME280;29800;55.942;37.314;2023-04-10T11:51:35;100398.13;;;12.67;49.18
44138;BME280;29800;55.942;37.314;2023-04-10T11:54:11;100396.31;;;12.73;48.63
44138;BME280;29800;55.942;37.314;2023-04-10T11:56:40;100394.72;;;12.77;48.15
44138;BME280;29800;55.942;37.314;2023-04-10T11:59:08;100396.47;;;12.83;48.47
44138;BME280;29800;55.942;37.314;2023-04-10T12:01:46;100393.81;;;12.88;48.01
44138;BME280;29800;55.942;37.314;2023-04-10T12:04:22;100395.06;;;12.97;48.22
44138;BME280;29800;55.942;37.314;2023-04-10T12:06:50;100389.34;;;12.99;48.25
44138;BME280;29800;55.942;37.314;2023-04-10T12:09:18;100384.16;;;13.02;47.20
44138;BME280;29800;55.942;37.314;2023-04-10T12:11:57;100378.25;;;13.11;47.21
44138;BME280;29800;55.942;37.314;2023-04-10T12:14:33;100372.47;;;13.29;48.20
44138;BME280;29800;55.942;37.314;2023-04-10T12:17:01;100374.63;;;13.44;46.43
44138;BME280;29800;55.942;37.314;2023-04-10T12:19:28;100367.34;;;13.55;45.99
44138;BME280;29800;55.942;37.314;2023-04-10T12:21:55;100361.84;;;13.55;45.94
44138;BME280;29800;55.942;37.314;2023-04-10T12:24:42;100357.56;;;13.64;46.40
44138;BME280;29800;55.942;37.314;2023-04-10T12:27:16;100355.25;;;13.56;46.94
44138;BME280;29800;55.942;37.314;2023-04-10T12:29:47;100354.94;;;13.52;46.59
44138;BME280;29800;55.942;37.314;2023-04-10T12:32:14;100349.59;;;13.63;46.25
44138;BME280;29800;55.942;37.314;2023-04-10T12:34:40;100343.34;;;13.72;45.95
44138;BME280;29800;55.942;37.314;2023-04-10T12:37:07;100347.44;;;13.92;45.77
44138;BME280;29800;55.942;37.314;2023-04-10T12:39:34;100340.75;;;14.10;44.57
44138;BME280;29800;55.942;37.314;2023-04-10T12:42:19;100338.97;;;14.21;44.26
44138;BME280;29800;55.942;37.314;2023-04-10T12:44:57;100327.63;;;14.17;44.19
44138;BME280;29800;55.942;37.314;2023-04-10T12:47:27;100333.81;;;14.02;44.12
44138;BME280;29800;55.942;37.314;2023-04-10T12:50:08;100331.00;;;13.97;44.39
44138;BME280;29800;55.942;37.314;2023-04-10T12:52:40;100323.47;;;13.87;45.06
44138;BME280;29800;55.942;37.314;2023-04-10T12:57:46;100318.94;;;13.76;43.68
44138;BME280;29800;55.942;37.314;2023-04-10T13:00:17;100309.22;;;13.68;44.38
44138;BME280;29800;55.942;37.314;2023-04-10T13:02:44;100300.59;;;13.59;45.84
44138;BME280;29800;55.942;37.314;2023-04-10T13:05:11;100299.94;;;13.52;44.24
44138;BME280;29800;55.942;37.314;2023-04-10T13:07:38;100303.69;;;13.46;43.84
44138;BME280;29800;55.942;37.314;2023-04-10T13:10:05;100304.50;;;13.41;44.09
44138;BME280;29800;55.942;37.314;2023-04-10T13:12:32;100307.19;;;13.36;43.81
44138;BME280;29800;55.942;37.314;2023-04-10T13:15:00;100308.41;;;13.29;43.84
44138;BME280;29800;55.942;37.314;2023-04-10T13:17:26;100307.00;;;13.26;43.94
44138;BME280;29800;55.942;37.314;2023-04-10T13:19:53;100305.34;;;13.25;44.47
44138;BME280;29800;55.942;37.314;2023-04-10T13:22:19;100302.00;;;13.23;43.27
44138;BME280;29800;55.942;37.314;2023-04-10T13:24:46;100294.00;;;13.21;42.66
44138;BME280;29800;55.942;37.314;2023-04-10T13:27:12;100294.53;;;13.18;43.88
44138;BME280;29800;55.942;37.314;2023-04-10T13:29:40;100295.63;;;13.17;42.90
44138;BME280;29800;55.942;37.314;2023-04-10T13:32:07;100292.88;;;13.17;43.09
44138;BME280;29800;55.942;37.314;2023-04-10T13:34:34;100299.13;;;13.13;42.35
44138;BME280;29800;55.942;37.314;2023-04-10T13:37:00;100288.63;;;13.10;42.64
44138;BME280;29800;55.942;37.314;2023-04-10T13:39:28;100293.56;;;13.08;42.92
44138;BME280;29800;55.942;37.314;2023-04-10T13:41:55;100291.25;;;12.99;43.24
44138;BME280;29800;55.942;37.314;2023-04-10T13:44:22;100287.91;;;12.97;42.98
44138;BME280;29800;55.942;37.314;2023-04-10T13:46:49;100284.56;;;12.95;43.10
44138;BME280;29800;55.942;37.314;2023-04-10T13:49:17;100290.06;;;12.95;41.79
44138;BME280;29800;55.942;37.314;2023-04-10T13:51:45;100289.75;;;12.92;41.28
44138;BME280;29800;55.942;37.314;2023-04-10T13:54:12;100280.09;;;12.89;41.74
44138;BME280;29800;55.942;37.314;2023-04-10T13:56:38;100276.75;;;12.87;41.54
44138;BME280;29800;55.942;37.314;2023-04-10T13:59:06;100281.94;;;12.83;41.74
44138;BME280;29800;55.942;37.314;2023-04-10T14:01:32;100276.63;;;12.77;42.88
44138;BME280;29800;55.942;37.314;2023-04-10T14:03:59;100277.72;;;12.76;42.45
44138;BME280;29800;55.942;37.314;2023-04-10T14:06:25;100277.38;;;12.72;42.00
44138;BME280;29800;55.942;37.314;2023-04-10T14:08:52;100277.28;;;12.67;42.84
44138;BME280;29800;55.942;37.314;2023-04-10T14:11:19;100279.47;;;12.65;42.66
44138;BME280;29800;55.942;37.314;2023-04-10T14:13:45;100280.78;;;12.62;42.77
44138;BME280;29800;55.942;37.314;2023-04-10T14:16:11;100278.28;;;12.61;42.88
44138;BME280;29800;55.942;37.314;2023-04-10T14:18:38;100275.81;;;12.59;42.64
44138;BME280;29800;55.942;37.314;2023-04-10T14:21:05;100278.56;;;12.59;43.16
44138;BME280;29800;55.942;37.314;2023-04-10T14:23:32;100270.56;;;12.58;43.40
44138;BME280;29800;55.942;37.314;2023-04-10T14:25:58;100272.97;;;12.54;42.65
44138;BME280;29800;55.942;37.314;2023-04-10T14:28:25;100275.97;;;12.53;43.35
44138;BME280;29800;55.942;37.314;2023-04-10T14:30:51;100265.75;;;12.48;44.05
44138;BME280;29800;55.942;37.314;2023-04-10T14:33:18;100261.81;;;12.44;43.90
44138;BME280;29800;55.942;37.314;2023-04-10T14:35:45;100262.31;;;12.41;44.00
44138;BME280;29800;55.942;37.314;2023-04-10T14:38:11;100263.19;;;12.41;44.20
44138;BME280;29800;55.942;37.314;2023-04-10T14:40:38;100257.31;;;12.38;44.50
44138;BME280;29800;55.942;37.314;2023-04-10T14:43:07;100268.81;;;12.35;44.44
44138;BME280;29800;55.942;37.314;2023-04-10T14:45:34;100269.31;;;12.31;45.06
44138;BME280;29800;55.942;37.314;2023-04-10T14:48:00;100264.09;;;12.30;45.26
44138;BME280;29800;55.942;37.314;2023-04-10T14:50:30;100265.72;;;12.31;45.48
44138;BME280;29800;55.942;37.314;2023-04-10T14:52:58;100261.84;;;12.27;45.09
44138;BME280;29800;55.942;37.314;2023-04-10T14:55:27;100270.31;;;12.25;44.75
44138;BME280;29800;55.942;37.314;2023-04-10T14:57:53;100269.75;;;12.23;45.36
44138;BME280;29800;55.942;37.314;2023-04-10T15:00:20;100267.47;;;12.20;45.24
44138;BME280;29800;55.942;37.314;2023-04-10T15:02:46;100263.66;;;12.21;45.33
44138;BME280;29800;55.942;37.314;2023-04-10T15:05:13;100272.97;;;12.20;45.56
44138;BME280;29800;55.942;37.314;2023-04-10T15:07:39;100262.81;;;12.21;45.52
44138;BME280;29800;55.942;37.314;2023-04-10T15:10:06;100262.50;;;12.17;45.82
44138;BME280;29800;55.942;37.314;2023-04-10T15:12:32;100263.56;;;12.16;45.93
44138;BME280;29800;55.942;37.314;2023-04-10T15:14:59;100262.50;;;12.17;46.63
44138;BME280;29800;55.942;37.314;2023-04-10T15:17:25;100263.06;;;12.19;46.75
44138;BME280;29800;55.942;37.314;2023-04-10T15:19:52;100265.72;;;12.14;46.99
44138;BME280;29800;55.942;37.314;2023-04-10T15:22:18;100262.72;;;12.16;47.25
44138;BME280;29800;55.942;37.314;2023-04-10T15:24:44;100261.31;;;12.13;47.73
44138;BME280;29800;55.942;37.314;2023-04-10T15:27:11;100257.16;;;12.10;48.32
44138;BME280;29800;55.942;37.314;2023-04-10T15:29:38;100255.16;;;12.06;48.54
44138;BME280;29800;55.942;37.314;2023-04-10T15:32:05;100258.16;;;12.04;48.15
44138;BME280;29800;55.942;37.314;2023-04-10T15:34:31;100254.50;;;11.99;48.68
44138;BME280;29800;55.942;37.314;2023-04-10T15:36:58;100254.75;;;11.97;48.67
44138;BME280;29800;55.942;37.314;2023-04-10T15:39:24;100257.97;;;11.94;48.09
44138;BME280;29800;55.942;37.314;2023-04-10T15:41:50;100259.28;;;11.91;48.52
44138;BME280;29800;55.942;37.314;2023-04-10T15:44:17;100253.69;;;11.86;48.57
44138;BME280;29800;55.942;37.314;2023-04-10T15:46:44;100258.25;;;11.81;48.97
44138;BME280;29800;55.942;37.314;2023-04-10T15:49:12;100254.81;;;11.73;49.28
44138;BME280;29800;55.942;37.314;2023-04-10T15:51:38;100255.53;;;11.69;48.73
44138;BME280;29800;55.942;37.314;2023-04-10T15:54:05;100251.63;;;11.65;49.47
44138;BME280;29800;55.942;37.314;2023-04-10T15:56:31;100252.69;;;11.64;49.30
44138;BME280;29800;55.942;37.314;2023-04-10T15:58:58;100252.03;;;11.56;49.71
44138;BME280;29800;55.942;37.314;2023-04-10T16:01:25;100259.78;;;11.48;49.91
44138;BME280;29800;55.942;37.314;2023-04-10T16:03:51;100253.84;;;11.39;50.04
44138;BME280;29800;55.942;37.314;2023-04-10T16:06:17;100257.56;;;11.33;50.43
44138;BME280;29800;55.942;37.314;2023-04-10T16:08:44;100249.25;;;11.28;50.58
44138;BME280;29800;55.942;37.314;2023-04-10T16:11:10;100248.56;;;11.20;51.06
44138;BME280;29800;55.942;37.314;2023-04-10T16:13:36;100248.69;;;11.14;50.92
44138;BME280;29800;55.942;37.314;2023-04-10T16:16:03;100247.63;;;11.03;51.27
44138;BME280;29800;55.942;37.314;2023-04-10T16:18:30;100240.97;;;10.99;51.49
44138;BME280;29800;55.942;37.314;2023-04-10T16:20:57;100240.63;;;10.95;51.47
44138;BME280;29800;55.942;37.314;2023-04-10T16:23:23;100237.41;;;10.87;51.71
44138;BME280;29800;55.942;37.314;2023-04-10T16:25:49;100243.00;;;10.80;52.09
44138;BME280;29800;55.942;37.314;2023-04-10T16:28:15;100238.13;;;10.70;52.46
44138;BME280;29800;55.942;37.314;2023-04-10T16:30:42;100241.59;;;10.65;52.37
44138;BME280;29800;55.942;37.314;2023-04-10T16:33:08;100234.13;;;10.61;52.84
44138;BME280;29800;55.942;37.314;2023-04-10T16:35:34;100243.38;;;10.60;53.07
44138;BME280;29800;55.942;37.314;2023-04-10T16:38:01;100237.78;;;10.66;52.92
44138;BME280;29800;55.942;37.314;2023-04-10T16:40:27;100235.16;;;10.72;53.06
44138;BME280;29800;55.942;37.314;2023-04-10T16:42:58;100239.09;;;10.76;52.93
44138;BME280;29800;55.942;37.314;2023-04-10T16:45:27;100238.25;;;10.75;53.21
44138;BME280;29800;55.942;37.314;2023-04-10T16:47:53;100235.97;;;10.72;53.43
44138;BME280;29800;55.942;37.314;2023-04-10T16:50:21;100238.47;;;10.74;53.88
44138;BME280;29800;55.942;37.314;2023-04-10T16:52:47;100242.66;;;10.76;53.73
44138;BME280;29800;55.942;37.314;2023-04-10T16:55:13;100237.19;;;10.76;53.42
44138;BME280;29800;55.942;37.314;2023-04-10T16:57:41;100237.88;;;10.83;53.43
44138;BME280;29800;55.942;37.314;2023-04-10T17:00:08;100236.25;;;10.82;53.51
44138;BME280;29800;55.942;37.314;2023-04-10T17:02:34;100239.56;;;10.84;53.56
44138;BME280;29800;55.942;37.314;2023-04-10T17:05:00;100240.38;;;10.85;53.49
44138;BME280;29800;55.942;37.314;2023-04-10T17:07:28;100236.59;;;10.86;53.75
44138;BME280;29800;55.942;37.314;2023-04-10T17:09:54;100239.66;;;10.90;54.34
44138;BME280;29800;55.942;37.314;2023-04-10T17:12:20;100236.09;;;10.89;54.25
44138;BME280;29800;55.942;37.314;2023-04-10T17:14:47;100234.78;;;10.92;54.36
44138;BME280;29800;55.942;37.314;2023-04-10T17:17:13;100236.94;;;10.90;54.46
44138;BME280;29800;55.942;37.314;2023-04-10T17:19:39;100232.41;;;10.83;54.53
44138;BME280;29800;55.942;37.314;2023-04-10T17:22:05;100232.41;;;10.83;54.65
44138;BME280;29800;55.942;37.314;2023-04-10T17:24:42;100231.34;;;10.84;54.67
44138;BME280;29800;55.942;37.314;2023-04-10T17:27:09;100228.25;;;10.81;54.86
44138;BME280;29800;55.942;37.314;2023-04-10T17:29:39;100229.09;;;10.81;54.85
44138;BME280;29800;55.942;37.314;2023-04-10T17:32:06;100235.03;;;10.78;55.19
44138;BME280;29800;55.942;37.314;2023-04-10T17:34:33;100226.72;;;10.73;55.05
44138;BME280;29800;55.942;37.314;2023-04-10T17:37:00;100228.00;;;10.71;55.10
44138;BME280;29800;55.942;37.314;2023-04-10T17:39:26;100225.88;;;10.73;55.40
44138;BME280;29800;55.942;37.314;2023-04-10T17:41:53;100222.19;;;10.67;55.64
44138;BME280;29800;55.942;37.314;2023-04-10T17:44:19;100223.63;;;10.70;55.42
44138;BME280;29800;55.942;37.314;2023-04-10T17:46:45;100226.13;;;10.71;55.36
44138;BME280;29800;55.942;37.314;2023-04-10T17:49:12;100223.38;;;10.71;55.89
44138;BME280;29800;55.942;37.314;2023-04-10T17:51:38;100222.53;;;10.71;56.00
44138;BME280;29800;55.942;37.314;2023-04-10T17:54:06;100227.19;;;10.70;56.34
44138;BME280;29800;55.942;37.314;2023-04-10T17:56:33;100227.19;;;10.70;56.23
44138;BME280;29800;55.942;37.314;2023-04-10T17:58:59;100231.00;;;10.69;56.64
44138;BME280;29800;55.942;37.314;2023-04-10T18:01:26;100222.19;;;10.67;57.04
44138;BME280;29800;55.942;37.314;2023-04-10T18:03:55;100229.34;;;10.68;57.08
44138;BME280;29800;55.942;37.314;2023-04-10T18:06:22;100222.41;;;10.65;57.41
44138;BME280;29800;55.942;37.314;2023-04-10T18:08:48;100228.75;;;10.66;57.54
44138;BME280;29800;55.942;37.314;2023-04-10T18:11:15;100224.34;;;10.65;57.39
44138;BME280;29800;55.942;37.314;2023-04-10T18:13:41;100215.53;;;10.63;57.42
44138;BME280;29800;55.942;37.314;2023-04-10T18:16:08;100216.34;;;10.63;57.87
44138;BME280;29800;55.942;37.314;2023-04-10T18:18:36;100217.69;;;10.61;57.84
44138;BME280;29800;55.942;37.314;2023-04-10T18:21:04;100224.81;;;10.62;57.99
44138;BME280;29800;55.942;37.314;2023-04-10T18:23:30;100215.19;;;10.59;57.88
44138;BME280;29800;55.942;37.314;2023-04-10T18:25:58;100215.44;;;10.58;57.83
44138;BME280;29800;55.942;37.314;2023-04-10T18:28:24;100214.09;;;10.60;58.02
44138;BME280;29800;55.942;37.314;2023-04-10T18:30:51;100209.72;;;10.59;58.04
44138;BME280;29800;55.942;37.314;2023-04-10T18:33:22;100211.38;;;10.60;57.98
44138;BME280;29800;55.942;37.314;2023-04-10T18:35:55;100208.38;;;10.62;58.20
44138;BME280;29800;55.942;37.314;2023-04-10T18:38:25;100211.59;;;10.59;58.19
44138;BME280;29800;55.942;37.314;2023-04-10T18:40:55;100209.94;;;10.58;58.37
44138;BME280;29800;55.942;37.314;2023-04-10T18:43:22;100206.00;;;10.54;58.43
44138;BME280;29800;55.942;37.314;2023-04-10T18:45:50;100208.97;;;10.52;58.36
44138;BME280;29800;55.942;37.314;2023-04-10T18:48:17;100203.97;;;10.49;58.47
44138;BME280;29800;55.942;37.314;2023-04-10T18:50:43;100210.78;;;10.46;58.38
44138;BME280;29800;55.942;37.314;2023-04-10T18:53:09;100209.56;;;10.42;58.72
44138;BME280;29800;55.942;37.314;2023-04-10T18:55:36;100210.91;;;10.40;58.37
44138;BME280;29800;55.942;37.314;2023-04-10T18:58:02;100201.25;;;10.37;58.27
44138;BME280;29800;55.942;37.314;2023-04-10T19:00:28;100205.53;;;10.33;58.50
44138;BME280;29800;55.942;37.314;2023-04-10T19:02:56;100200.75;;;10.28;58.43
44138;BME280;29800;55.942;37.314;2023-04-10T19:05:23;100204.78;;;10.26;58.23
44138;BME280;29800;55.942;37.314;2023-04-10T19:07:49;100193.47;;;10.22;58.11
44138;BME280;29800;55.942;37.314;2023-04-10T19:10:15;100202.16;;;10.19;58.75
44138;BME280;29800;55.942;37.314;2023-04-10T19:12:42;100205.13;;;10.18;58.68
44138;BME280;29800;55.942;37.314;2023-04-10T19:15:10;100207.50;;;10.14;59.18
44138;BME280;29800;55.942;37.314;2023-04-10T19:17:38;100196.91;;;10.18;59.12
44138;BME280;29800;55.942;37.314;2023-04-10T19:20:04;100203.59;;;10.22;59.08
44138;BME280;29800;55.942;37.314;2023-04-10T19:22:31;100205.63;;;10.26;58.92
44138;BME280;29800;55.942;37.314;2023-04-10T19:25:00;100202.03;;;10.26;58.86
44138;BME280;29800;55.942;37.314;2023-04-10T19:27:26;100200.91;;;10.34;58.93
44138;BME280;29800;55.942;37.314;2023-04-10T19:29:53;100200.66;;;10.35;58.61
44138;BME280;29800;55.942;37.314;2023-04-10T19:32:19;100205.75;;;10.32;59.00
44138;BME280;29800;55.942;37.314;2023-04-10T19:34:45;100195.44;;;10.34;58.95
44138;BME280;29800;55.942;37.314;2023-04-10T19:37:18;100201.25;;;10.37;58.96
44138;BME280;29800;55.942;37.314;2023-04-10T19:39:46;100195.78;;;10.37;58.93
44138;BME280;29800;55.942;37.314;2023-04-10T19:42:12;100195.19;;;10.47;58.56
44138;BME280;29800;55.942;37.314;2023-04-10T19:44:39;100194.94;;;10.48;58.28
44138;BME280;29800;55.942;37.314;2023-04-10T19:47:05;100184.72;;;10.44;58.20
44138;BME280;29800;55.942;37.314;2023-04-10T19:49:33;100187.94;;;10.53;58.22
44138;BME280;29800;55.942;37.314;2023-04-10T19:51:59;100189.59;;;10.54;58.13
44138;BME280;29800;55.942;37.314;2023-04-10T19:54:27;100186.13;;;10.58;57.92
44138;BME280;29800;55.942;37.314;2023-04-10T19:56:55;100185.19;;;10.53;58.15
44138;BME280;29800;55.942;37.314;2023-04-10T19:59:23;100189.34;;;10.55;58.38
44138;BME280;29800;55.942;37.314;2023-04-10T20:01:49;100183.63;;;10.57;57.98
44138;BME280;29800;55.942;37.314;2023-04-10T20:04:16;100182.69;;;10.63;57.64
44138;BME280;29800;55.942;37.314;2023-04-10T20:06:42;100181.47;;;10.71;57.52
44138;BME280;29800;55.942;37.314;2023-04-10T20:09:09;100183.38;;;10.70;57.40
44138;BME280;29800;55.942;37.314;2023-04-10T20:11:36;100179.47;;;10.66;57.50
44138;BME280;29800;55.942;37.314;2023-04-10T20:14:05;100181.13;;;10.67;57.72
44138;BME280;29800;55.942;37.314;2023-04-10T20:16:32;100173.38;;;10.64;57.65
44138;BME280;29800;55.942;37.314;2023-04-10T20:18:59;100171.25;;;10.66;57.74
44138;BME280;29800;55.942;37.314;2023-04-10T20:21:25;100169.22;;;10.73;57.28
44138;BME280;29800;55.942;37.314;2023-04-10T20:23:52;100173.53;;;10.69;56.97
44138;BME280;29800;55.942;37.314;2023-04-10T20:26:19;100178.38;;;10.67;57.31
44138;BME280;29800;55.942;37.314;2023-04-10T20:28:45;100173.53;;;10.69;57.15
44138;BME280;29800;55.942;37.314;2023-04-10T20:31:12;100181.13;;;10.67;56.91
44138;BME280;29800;55.942;37.314;2023-04-10T20:33:39;100178.63;;;10.77;57.22
44138;BME280;29800;55.942;37.314;2023-04-10T20:36:06;100177.91;;;10.70;57.42
44138;BME280;29800;55.942;37.314;2023-04-10T20:38:32;100179.78;;;10.81;57.07
44138;BME280;29800;55.942;37.314;2023-04-10T20:40:59;100180.84;;;10.80;56.91
44138;BME280;29800;55.942;37.314;2023-04-10T20:43:25;100177.53;;;10.78;57.32
44138;BME280;29800;55.942;37.314;2023-04-10T20:45:52;100184.22;;;10.82;57.31
44138;BME280;29800;55.942;37.314;2023-04-10T20:48:18;100189.06;;;10.80;57.25
44138;BME280;29800;55.942;37.314;2023-04-10T20:50:45;100180.50;;;10.77;57.23
44138;BME280;29800;55.942;37.314;2023-04-10T20:53:11;100188.13;;;10.87;57.30
44138;BME280;29800;55.942;37.314;2023-04-10T20:55:38;100177.50;;;10.90;57.07
44138;BME280;29800;55.942;37.314;2023-04-10T20:58:05;100181.47;;;10.82;57.10
44138;BME280;29800;55.942;37.314;2023-04-10T21:00:32;100181.94;;;10.79;57.15
44138;BME280;29800;55.942;37.314;2023-04-10T21:02:58;100180.47;;;10.89;57.37
44138;BME280;29800;55.942;37.314;2023-04-10T21:05:26;100189.31;;;10.91;57.05
44138;BME280;29800;55.942;37.314;2023-04-10T21:07:55;100179.41;;;10.90;57.05
44138;BME280;29800;55.942;37.314;2023-04-10T21:10:22;100186.47;;;10.85;57.26
44138;BME280;29800;55.942;37.314;2023-04-10T21:12:51;100182.16;;;10.90;56.97
44138;BME280;29800;55.942;37.314;2023-04-10T21:15:17;100177.75;;;10.89;57.29
44138;BME280;29800;55.942;37.314;2023-04-10T21:17:43;100181.69;;;10.93;56.97
44138;BME280;29800;55.942;37.314;2023-04-10T21:20:10;100174.53;;;10.92;57.21
44138;BME280;29800;55.942;37.314;2023-04-10T21:22:37;100177.25;;;10.92;56.99
44138;BME280;29800;55.942;37.314;2023-04-10T21:25:04;100177.16;;;10.87;57.12
44138;BME280;29800;55.942;37.314;2023-04-10T21:27:30;100178.84;;;10.88;57.23
44138;BME280;29800;55.942;37.314;2023-04-10T21:29:56;100174.19;;;10.88;57.14
44138;BME280;29800;55.942;37.314;2023-04-10T21:32:23;100179.19;;;10.91;56.99
44138;BME280;29800;55.942;37.314;2023-04-10T21:34:49;100176.47;;;10.79;56.97
44138;BME280;29800;55.942;37.314;2023-04-10T21:37:15;100176.00;;;10.82;57.41
44138;BME280;29800;55.942;37.314;2023-04-10T21:39:42;100173.94;;;10.90;56.94
44138;BME280;29800;55.942;37.314;2023-04-10T21:42:08;100171.25;;;10.78;56.94
44138;BME280;29800;55.942;37.314;2023-04-10T21:44:35;100177.06;;;10.81;57.31
44138;BME280;29800;55.942;37.314;2023-04-10T21:47:01;100174.91;;;10.83;56.85
44138;BME280;29800;55.942;37.314;2023-04-10T21:49:27;100175.50;;;10.85;56.58
44138;BME280;29800;55.942;37.314;2023-04-10T21:51:54;100168.84;;;10.81;56.91
44138;BME280;29800;55.942;37.314;2023-04-10T21:54:20;100166.81;;;10.77;57.22
44138;BME280;29800;55.942;37.314;2023-04-10T21:56:47;100169.81;;;10.87;57.10
44138;BME280;29800;55.942;37.314;2023-04-10T21:59:15;100168.84;;;10.81;57.25
44138;BME280;29800;55.942;37.314;2023-04-10T22:01:42;100174.44;;;10.87;57.58
44138;BME280;29800;55.942;37.314;2023-04-10T22:04:09;100168.72;;;10.88;57.15
44138;BME280;29800;55.942;37.314;2023-04-10T22:06:36;100162.88;;;10.84;57.17
44138;BME280;29800;55.942;37.314;2023-04-10T22:09:03;100165.28;;;10.81;57.37
44138;BME280;29800;55.942;37.314;2023-04-10T22:11:31;100166.09;;;10.81;57.60
44138;BME280;29800;55.942;37.314;2023-04-10T22:13:59;100163.81;;;10.90;57.37
44138;BME280;29800;55.942;37.314;2023-04-10T22:16:26;100171.44;;;10.88;57.53
44138;BME280;29800;55.942;37.314;2023-04-10T22:18:53;100166.41;;;10.97;57.37
44138;BME280;29800;55.942;37.314;2023-04-10T22:21:20;100167.41;;;10.91;57.57
44138;BME280;29800;55.942;37.314;2023-04-10T22:23:48;100164.28;;;10.99;57.75
44138;BME280;29800;55.942;37.314;2023-04-10T22:26:15;100160.47;;;11.00;57.55
44138;BME280;29800;55.942;37.314;2023-04-10T22:28:42;100157.97;;;10.98;57.85
44138;BME280;29800;55.942;37.314;2023-04-10T22:31:16;100160.34;;;10.95;57.76
44138;BME280;29800;55.942;37.314;2023-04-10T22:33:44;100153.09;;;10.89;57.87
44138;BME280;29800;55.942;37.314;2023-04-10T22:36:11;100152.03;;;10.90;57.80
44138;BME280;29800;55.942;37.314;2023-04-10T22:38:39;100159.09;;;10.85;58.09